Time;durP1;ratioP1;P1;durP2;ratioP2;P2;SDS_P1;SDS_P2;PMS_P1;PMS_P2;Temp;Humidity;BMP_temperature;BMP_pressure;BME280_temperature;BME280_humidity;BME280_pressure;Samples;Min_cycle;Max_cycle;Signal;HPM_P1;HPM_P2
2022/05/29 00:02:16;;;;;;;4.88;2.90;;;;;;;8.17;100.00;96079.22;5064748;28;20064;-51
2022/05/29 00:04:44;;;;;;;4.95;3.40;;;;;;;8.01;100.00;96085.00;5064084;28;20076;-51
2022/05/29 00:07:18;;;;;;;7.10;3.15;;;;;;;7.80;100.00;96079.88;5062902;28;20072;-49
2022/05/29 00:10:07;;;;;;;5.22;3.03;;;;;;;7.61;100.00;96079.88;5060461;28;20045;-54
2022/05/29 00:12:39;;;;;;;4.20;2.80;;;;;;;7.59;100.00;96085.25;5061421;28;20490;-51
2022/05/29 00:15:09;;;;;;;7.97;3.60;;;;;;;7.62;100.00;96084.16;5063577;28;20092;-52
2022/05/29 00:17:37;;;;;;;8.10;3.33;;;;;;;7.61;100.00;96079.88;5062974;28;20056;-54
2022/05/29 00:20:07;;;;;;;5.68;3.38;;;;;;;7.51;100.00;96081.66;5060443;28;20076;-53
2022/05/29 00:22:59;;;;;;;4.18;3.20;;;;;;;7.38;100.00;96071.41;5062295;28;20479;-52
2022/05/29 00:25:29;;;;;;;3.72;3.33;;;;;;;7.45;100.00;96071.69;5059423;28;20079;-49
2022/05/29 00:27:57;;;;;;;5.28;3.10;;;;;;;7.51;100.00;96068.53;5060677;28;20033;-50
2022/05/29 00:30:26;;;;;;;4.35;3.50;;;;;;;7.46;100.00;96068.91;5058901;28;20075;-55
2022/05/29 00:32:54;;;;;;;4.85;3.45;;;;;;;7.53;100.00;96070.03;5059500;28;20087;-53
2022/05/29 00:35:22;;;;;;;4.25;3.53;;;;;;;7.57;100.00;96075.84;5061947;28;20061;-47
2022/05/29 00:38:14;;;;;;;3.78;3.30;;;;;;;7.46;100.00;96063.66;5056965;28;20515;-54
2022/05/29 00:40:49;;;;;;;5.47;3.67;;;;;;;7.42;100.00;96066.72;5061830;28;20075;-53
2022/05/29 00:43:17;;;;;;;3.60;3.30;;;;;;;7.23;100.00;96068.31;5061577;28;20732;-52
2022/05/29 00:45:49;;;;;;;4.40;3.38;;;;;;;7.31;100.00;96059.78;5060733;28;20060;-55
2022/05/29 00:48:18;;;;;;;5.75;3.50;;;;;;;7.27;100.00;96058.41;5062492;28;20083;-56
2022/05/29 00:50:48;;;;;;;4.97;3.38;;;;;;;7.26;100.00;96054.94;5058052;28;20084;-50
2022/05/29 00:53:17;;;;;;;8.07;3.50;;;;;;;7.28;100.00;96052.19;5063550;28;20068;-50
2022/05/29 00:55:50;;;;;;;4.22;3.40;;;;;;;7.26;100.00;96046.22;5062890;28;20498;-51
2022/05/29 00:58:21;;;;;;;5.97;3.60;;;;;;;7.45;100.00;96043.66;5058219;28;20123;-48
2022/05/29 01:00:50;;;;;;;5.22;3.35;;;;;;;7.42;100.00;96032.59;5056072;28;20056;-50
2022/05/29 01:03:19;;;;;;;5.45;3.40;;;;;;;7.39;100.00;96031.06;5061952;28;20060;-50
2022/05/29 01:05:47;;;;;;;4.57;3.30;;;;;;;7.30;100.00;96035.34;5061094;28;20084;-54
2022/05/29 01:08:20;;;;;;;5.47;3.50;;;;;;;7.24;100.00;96025.41;5060639;28;20072;-48
2022/05/29 01:11:02;;;;;;;3.88;3.42;;;;;;;7.13;100.00;96025.50;5060423;28;20076;-53
2022/05/29 01:13:36;;;;;;;4.30;3.38;;;;;;;7.08;100.00;96022.44;5057099;28;20072;-54
2022/05/29 01:16:17;;;;;;;3.90;3.50;;;;;;;7.12;100.00;96018.59;5059036;28;20057;-49
2022/05/29 01:18:49;;;;;;;4.20;3.80;;;;;;;7.18;100.00;96014.63;5058291;28;20536;-56
2022/05/29 01:21:29;;;;;;;5.55;3.67;;;;;;;7.16;100.00;96009.50;5065143;28;20079;-51
2022/05/29 01:24:12;;;;;;;5.35;2.97;;;;;;;7.20;100.00;96000.41;5064880;28;20099;-49
2022/05/29 01:26:58;;;;;;;5.85;3.30;;;;;;;7.22;100.00;95990.59;5059632;28;20571;-50
2022/05/29 01:29:33;;;;;;;5.95;3.85;;;;;;;7.21;100.00;95993.38;5065047;28;20072;-49
2022/05/29 01:32:07;;;;;;;5.00;3.70;;;;;;;7.21;100.00;95981.09;5060761;28;20068;-50
2022/05/29 01:35:05;;;;;;;5.50;3.95;;;;;;;7.22;100.00;95985.34;5064348;28;20537;-51
2022/05/29 01:37:38;;;;;;;4.40;3.88;;;;;;;7.21;100.00;95980.25;5064426;28;20075;-47
2022/05/29 01:40:09;;;;;;;6.03;4.10;;;;;;;7.14;100.00;95972.94;5061842;28;20074;-50
2022/05/29 01:42:40;;;;;;;5.20;3.92;;;;;;;7.14;100.00;95969.47;5062145;28;20056;-54
2022/05/29 01:45:17;;;;;;;3.85;3.55;;;;;;;7.16;100.00;95964.09;5066935;28;20084;-49
2022/05/29 01:47:48;;;;;;;4.85;3.33;;;;;;;7.04;100.00;95963.38;5061617;28;21642;-55
2022/05/29 01:50:19;;;;;;;3.70;3.35;;;;;;;6.99;100.00;95960.34;5062896;28;20080;-52
2022/05/29 01:52:51;;;;;;;4.03;3.35;;;;;;;6.94;100.00;95957.28;5059758;28;20044;-44
2022/05/29 01:55:22;;;;;;;3.30;3.00;;;;;;;6.93;100.00;95955.66;5064114;28;20060;-49
2022/05/29 01:57:51;;;;;;;;;;;;;;;6.90;100.00;95952.31;5065651;28;20068;-50
2022/05/29 02:00:23;;;;;;;4.07;3.38;;;;;;;6.92;100.00;95944.34;5065266;28;20569;-50
2022/05/29 02:02:54;;;;;;;4.95;3.20;;;;;;;6.84;100.00;95939.75;5060257;28;20074;-52
2022/05/29 02:05:24;;;;;;;4.38;3.10;;;;;;;6.70;100.00;95934.06;5066472;28;20064;-51
2022/05/29 02:07:59;;;;;;;4.40;3.67;;;;;;;6.59;100.00;95930.59;5063056;28;20064;-50
2022/05/29 02:10:31;;;;;;;3.95;3.30;;;;;;;6.54;100.00;95924.94;5061010;28;20064;-51
2022/05/29 02:13:05;;;;;;;6.70;3.80;;;;;;;6.52;100.00;95913.75;5060705;28;20076;-47
2022/05/29 02:15:39;;;;;;;6.35;3.58;;;;;;;6.49;100.00;95911.38;5063163;28;20400;-48
2022/05/29 02:18:12;;;;;;;5.65;3.55;;;;;;;6.49;100.00;95915.81;5065322;28;20443;-47
2022/05/29 02:20:43;;;;;;;5.90;3.80;;;;;;;6.52;100.00;95913.75;5062167;28;21515;-49
2022/05/29 02:23:15;;;;;;;5.00;3.85;;;;;;;6.37;100.00;95908.06;5065913;28;20060;-49
2022/05/29 02:25:44;;;;;;;6.47;3.78;;;;;;;6.46;100.00;95909.03;5061440;28;20063;-54
2022/05/29 02:28:15;;;;;;;6.93;3.95;;;;;;;6.20;100.00;95910.47;5064663;28;20076;-54
2022/05/29 02:30:49;;;;;;;4.35;3.95;;;;;;;6.09;100.00;95900.88;5063580;28;20071;-51
2022/05/29 02:33:20;;;;;;;4.40;3.72;;;;;;;6.08;100.00;95894.81;5063847;28;20091;-52
2022/05/29 02:35:55;;;;;;;4.68;3.78;;;;;;;6.09;100.00;95893.03;5063978;28;20068;-50
2022/05/29 02:38:29;;;;;;;5.78;3.10;;;;;;;6.10;100.00;95881.63;5060245;28;20188;-48
2022/05/29 02:41:00;;;;;;;4.38;3.65;;;;;;;6.11;100.00;95888.50;5061964;28;20474;-45
2022/05/29 02:43:38;;;;;;;4.57;3.70;;;;;;;6.13;100.00;95881.38;5066177;28;20072;-54
2022/05/29 02:46:14;;;;;;;4.95;4.13;;;;;;;6.13;100.00;95882.19;5061435;28;20080;-52
2022/05/29 02:48:48;;;;;;;4.43;4.03;;;;;;;6.11;100.00;95873.63;5062895;28;20336;-54
2022/05/29 02:51:20;;;;;;;5.15;3.70;;;;;;;6.13;100.00;95873.50;5061616;28;20099;-54
2022/05/29 02:53:48;;;;;;;4.40;3.53;;;;;;;6.17;100.00;95872.28;5062984;28;20076;-50
2022/05/29 02:56:17;;;;;;;4.40;3.53;;;;;;;6.27;100.00;95869.69;5063657;28;20082;-52
2022/05/29 02:58:48;;;;;;;5.90;3.65;;;;;;;6.31;100.00;95864.06;5065059;28;20072;-51
2022/05/29 03:01:25;;;;;;;7.95;4.07;;;;;;;6.30;100.00;95865.03;5066364;28;20498;-54
2022/05/29 03:04:11;;;;;;;5.47;3.67;;;;;;;6.35;100.00;95864.63;5065756;28;20064;-52
2022/05/29 03:06:51;;;;;;;3.88;3.22;;;;;;;6.25;100.00;95867.19;5065096;28;20072;-48
2022/05/29 03:09:39;;;;;;;4.30;3.58;;;;;;;6.25;100.00;95874.22;5058434;28;20814;-52
2022/05/29 03:12:18;;;;;;;6.07;3.45;;;;;;;6.24;100.00;95873.41;5054475;28;20084;-51
2022/05/29 03:14:52;;;;;;;5.75;4.05;;;;;;;6.07;100.00;95879.25;5062962;28;20462;-50
2022/05/29 03:17:29;;;;;;;7.00;4.55;;;;;;;5.70;100.00;95870.09;5061131;28;20072;-53
2022/05/29 03:20:03;;;;;;;6.45;4.38;;;;;;;5.67;100.00;95869.50;5053767;28;20076;-50
2022/05/29 03:22:35;;;;;;;7.32;4.32;;;;;;;5.90;100.00;95871.03;5061079;28;20068;-50
2022/05/29 03:25:08;;;;;;;7.20;4.75;;;;;;;6.03;100.00;95873.47;5062395;28;20316;-49
2022/05/29 03:27:38;;;;;;;6.25;4.90;;;;;;;6.05;100.00;95866.28;5060881;28;21439;-52
2022/05/29 03:30:09;;;;;;;6.68;4.80;;;;;;;6.11;100.00;95875.41;5063777;28;20072;-54
2022/05/29 03:32:38;;;;;;;;;;;;;;;6.05;100.00;95874.16;5062365;28;20087;-54
2022/05/29 03:35:21;;;;;;;4.70;3.70;;;;;;;6.06;100.00;95872.38;5063483;28;19978;-48
2022/05/29 03:37:50;;;;;;;4.80;4.38;;;;;;;5.91;100.00;95870.06;5064236;28;20522;-51
2022/05/29 03:40:18;;;;;;;5.40;3.95;;;;;;;6.01;100.00;95866.69;5063790;28;20522;-50
2022/05/29 03:42:47;;;;;;;8.30;4.43;;;;;;;5.92;100.00;95863.91;5056942;28;20068;-48
2022/05/29 03:45:16;;;;;;;4.45;4.05;;;;;;;5.91;100.00;95862.22;5062703;28;20577;-50
2022/05/29 03:47:46;;;;;;;5.88;3.13;;;;;;;5.94;100.00;95858.53;5058776;28;20088;-55
2022/05/29 03:50:17;;;;;;;7.47;4.85;;;;;;;6.20;100.00;95858.94;5066086;28;20075;-52
2022/05/29 03:52:45;;;;;;;8.35;5.90;;;;;;;7.19;100.00;95853.69;5059891;28;20095;-50
2022/05/29 03:55:15;;;;;;;6.97;5.20;;;;;;;8.17;100.00;95844.66;5064427;28;20068;-48
2022/05/29 03:57:43;;;;;;;7.20;5.40;;;;;;;8.64;100.00;95850.66;5065323;28;20056;-51
2022/05/29 04:00:13;;;;;;;5.10;4.60;;;;;;;9.23;100.00;95846.63;5064819;28;20091;-53
2022/05/29 04:02:42;;;;;;;5.60;5.10;;;;;;;10.03;100.00;95833.34;5063988;28;20079;-48
2022/05/29 04:05:13;;;;;;;10.05;5.22;;;;;;;10.93;100.00;95825.78;5065783;28;20067;-50
2022/05/29 04:13:14;;;;;;;7.05;4.90;;;;;;;12.22;100.00;95806.59;5059032;28;20523;-48
2022/05/29 04:15:45;;;;;;;4.90;4.50;;;;;;;12.11;100.00;95807.75;5066650;28;20060;-53
2022/05/29 04:18:14;;;;;;;5.15;4.75;;;;;;;12.51;100.00;95805.97;5062194;28;20083;-52
2022/05/29 04:20:44;;;;;;;5.28;4.75;;;;;;;12.62;100.00;95808.22;5063956;28;20339;-48
2022/05/29 04:23:12;;;;;;;5.30;4.85;;;;;;;13.18;100.00;95797.44;5063675;28;20080;-48
2022/05/29 04:25:44;;;;;;;6.25;4.97;;;;;;;13.46;100.00;95790.63;5063508;28;20466;-48
2022/05/29 04:28:12;;;;;;;5.15;4.70;;;;;;;14.19;100.00;95791.72;5059985;28;20060;-54
2022/05/29 04:30:41;;;;;;;6.65;4.90;;;;;;;14.42;100.00;95778.34;5064860;28;20064;-53
2022/05/29 04:33:09;;;;;;;5.47;4.70;;;;;;;14.28;100.00;95789.81;5064817;28;20464;-53
2022/05/29 04:35:40;;;;;;;6.22;4.97;;;;;;;14.78;100.00;95782.88;5065028;28;20072;-54
2022/05/29 04:38:11;;;;;;;4.55;3.80;;;;;;;14.83;100.00;95777.00;5062947;28;20064;-51
2022/05/29 04:40:40;;;;;;;5.82;4.82;;;;;;;15.03;100.00;95778.03;5062273;28;20063;-49
2022/05/29 04:43:09;;;;;;;7.68;4.50;;;;;;;15.52;100.00;95771.94;5060882;28;20067;-52
2022/05/29 04:45:39;;;;;;;5.13;4.63;;;;;;;15.51;100.00;95777.44;5060754;28;20078;-51
2022/05/29 04:48:08;;;;;;;6.53;3.90;;;;;;;15.44;100.00;95788.81;5057879;28;20076;-49
2022/05/29 04:50:37;;;;;;;5.85;4.95;;;;;;;15.84;100.00;95791.03;5057117;28;20068;-50
2022/05/29 04:53:06;;;;;;;6.13;4.85;;;;;;;15.77;100.00;95782.19;5062276;28;20068;-50
2022/05/29 04:55:36;;;;;;;5.65;4.90;;;;;;;15.46;100.00;95786.00;5058768;28;20529;-55
2022/05/29 04:58:04;;;;;;;5.40;4.90;;;;;;;15.78;100.00;95783.81;5052289;28;20064;-51
2022/05/29 05:00:33;;;;;;;5.70;4.70;;;;;;;16.13;100.00;95785.47;5057190;28;20211;-48
2022/05/29 05:03:01;;;;;;;6.32;4.68;;;;;;;15.94;100.00;95788.03;5057982;28;20084;-50
2022/05/29 05:05:30;;;;;;;7.25;5.00;;;;;;;15.72;100.00;95780.09;5061485;28;20071;-51
2022/05/29 05:07:58;;;;;;;5.60;4.95;;;;;;;15.66;100.00;95775.56;5060094;28;20189;-52
2022/05/29 05:10:27;;;;;;;5.25;4.75;;;;;;;16.01;100.00;95772.94;5060225;28;20161;-52
2022/05/29 05:12:56;;;;;;;5.18;4.28;;;;;;;15.82;100.00;95772.59;5060854;28;20053;-53
2022/05/29 05:15:24;;;;;;;6.40;4.63;;;;;;;16.17;100.00;95777.91;5065861;28;20080;-50
2022/05/29 05:17:53;;;;;;;6.00;4.15;;;;;;;15.95;100.00;95773.72;5065550;28;20060;-55
2022/05/29 05:20:21;;;;;;;5.63;4.18;;;;;;;15.26;100.00;95774.38;5062946;28;20079;-53
2022/05/29 05:22:51;;;;;;;4.50;3.80;;;;;;;15.08;100.00;95764.19;5062024;28;20064;-50
2022/05/29 05:25:20;;;;;;;4.10;3.63;;;;;;;14.55;100.00;95772.41;5061553;28;20061;-48
2022/05/29 05:27:48;;;;;;;5.00;4.05;;;;;;;14.86;100.00;95766.81;5060193;28;20350;-48
2022/05/29 05:30:18;;;;;;;6.35;3.80;;;;;;;14.37;100.00;95764.81;5058822;28;20535;-50
2022/05/29 05:32:46;;;;;;;5.27;3.87;;;;;;;14.78;100.00;95766.13;5061351;28;20076;-54
2022/05/29 05:35:14;;;;;;;5.00;3.65;;;;;;;14.92;100.00;95768.72;5058930;28;20495;-50
2022/05/29 05:37:44;;;;;;;4.88;3.55;;;;;;;15.22;100.00;95779.25;5063091;28;20064;-56
2022/05/29 05:40:14;;;;;;;4.53;3.35;;;;;;;14.74;100.00;95776.31;5062410;28;20518;-55
2022/05/29 05:42:42;;;;;;;5.13;3.50;;;;;;;15.56;100.00;95770.53;5062793;28;20068;-57
2022/05/29 05:45:12;;;;;;;4.90;3.63;;;;;;;15.01;100.00;95781.91;5062212;28;20091;-53
2022/05/29 05:47:42;;;;;;;6.07;3.33;;;;;;;15.07;100.00;95781.13;5063919;28;20466;-51
2022/05/29 05:50:12;;;;;;;3.95;3.45;;;;;;;15.10;100.00;95786.06;5055825;28;20628;-51
2022/05/29 05:52:40;;;;;;;5.82;2.75;;;;;;;15.35;100.00;95787.34;5061851;28;20079;-48
2022/05/29 05:55:11;;;;;;;4.05;2.58;;;;;;;15.63;100.00;95783.88;5060866;28;20067;-54
2022/05/29 05:57:40;;;;;;;4.82;2.78;;;;;;;15.42;100.00;95792.72;5059435;28;20056;-47
2022/05/29 06:00:11;;;;;;;4.85;2.90;;;;;;;15.56;100.00;95791.81;5059629;28;20087;-53
2022/05/29 06:02:42;;;;;;;5.15;2.88;;;;;;;14.77;100.00;95785.72;5059106;28;20068;-54
2022/05/29 06:05:11;;;;;;;4.38;2.90;;;;;;;14.88;100.00;95786.03;5061953;28;20535;-51
2022/05/29 06:07:40;;;;;;;6.50;3.05;;;;;;;14.54;100.00;95793.81;5062023;28;20132;-49
2022/05/29 06:10:09;;;;;;;4.85;3.35;;;;;;;14.59;100.00;95788.75;5063363;28;20068;-53
2022/05/29 06:12:38;;;;;;;5.55;3.25;;;;;;;14.55;100.00;95787.50;5065421;28;20044;-49
2022/05/29 06:15:08;;;;;;;6.25;3.13;;;;;;;14.20;100.00;95782.75;5063501;28;20163;-52
2022/05/29 06:17:36;;;;;;;6.50;3.20;;;;;;;14.17;100.00;95790.25;5066416;28;20060;-52
2022/05/29 06:20:07;;;;;;;4.35;3.10;;;;;;;14.18;100.00;95786.59;5063954;28;20072;-53
2022/05/29 06:22:37;;;;;;;6.97;2.97;;;;;;;14.27;100.00;95779.38;5065769;28;20041;-51
2022/05/29 06:25:07;;;;;;;6.23;2.93;;;;;;;14.01;100.00;95775.34;5065718;28;20064;-54
2022/05/29 06:27:36;;;;;;;4.35;3.15;;;;;;;14.24;100.00;95783.19;5066712;28;20549;-53
2022/05/29 06:30:07;;;;;;;6.15;3.20;;;;;;;14.38;100.00;95785.03;5062396;28;20079;-51
2022/05/29 06:32:35;;;;;;;4.57;3.20;;;;;;;14.08;100.00;95784.22;5067136;28;20072;-51
2022/05/29 06:35:06;;;;;;;4.93;3.20;;;;;;;14.61;100.00;95792.88;5060693;28;20542;-51
2022/05/29 06:37:35;;;;;;;6.65;3.33;;;;;;;14.75;100.00;95791.19;5067060;28;20056;-49
2022/05/29 06:40:04;;;;;;;3.85;3.10;;;;;;;14.81;100.00;95790.47;5067714;28;20505;-49
2022/05/29 06:42:32;;;;;;;4.82;3.33;;;;;;;14.80;100.00;95788.00;5061598;28;20084;-53
2022/05/29 06:45:01;;;;;;;4.63;3.10;;;;;;;15.06;100.00;95788.28;5067942;28;20068;-49
2022/05/29 06:47:29;;;;;;;4.70;2.90;;;;;;;15.20;100.00;95790.03;5066170;28;20482;-55
2022/05/29 06:49:57;;;;;;;5.47;3.30;;;;;;;15.20;100.00;95781.25;5064903;28;20064;-49
2022/05/29 06:52:29;;;;;;;6.03;2.97;;;;;;;14.85;100.00;95783.75;5060679;28;20073;-53
2022/05/29 06:54:57;;;;;;;6.57;3.05;;;;;;;14.95;100.00;95791.44;5061209;28;20064;-51
2022/05/29 06:57:37;;;;;;;8.10;2.97;;;;;;;15.35;100.00;95786.53;5062956;28;20084;-52
2022/05/29 07:08:29;;;;;;;4.07;2.58;;;;;;;16.55;100.00;95761.50;5062853;28;20065;-53
2022/05/29 07:11:00;;;;;;;4.97;2.88;;;;;;;15.83;100.00;95771.59;5064895;28;20060;-52
2022/05/29 07:13:30;;;;;;;6.38;2.72;;;;;;;15.36;100.00;95774.88;5059523;28;20489;-50
2022/05/29 07:15:58;;;;;;;5.50;2.73;;;;;;;15.43;100.00;95773.09;5060438;28;20072;-53
2022/05/29 07:18:27;;;;;;;3.45;2.60;;;;;;;15.30;100.00;95772.97;5056195;28;20087;-54
2022/05/29 07:20:55;;;;;;;3.78;2.70;;;;;;;14.99;100.00;95766.13;5058725;28;20084;-56
2022/05/29 07:23:23;;;;;;;5.70;2.92;;;;;;;15.23;100.00;95762.28;5061615;28;20052;-52
2022/05/29 07:25:54;;;;;;;4.78;2.83;;;;;;;15.35;100.00;95763.44;5056346;28;20159;-51
2022/05/29 07:28:23;;;;;;;4.43;2.92;;;;;;;15.70;100.00;95770.69;5060814;28;20060;-55
2022/05/29 07:30:52;;;;;;;5.50;2.63;;;;;;;15.88;100.00;95773.66;5058779;28;20075;-48
2022/05/29 07:33:26;;;;;;;3.60;2.90;;;;;;;15.94;100.00;95767.56;5058597;28;20053;-50
2022/05/29 07:35:55;;;;;;;6.93;2.92;;;;;;;15.75;100.00;95763.75;5060299;28;20080;-48
2022/05/29 07:38:23;;;;;;;4.80;3.10;;;;;;;15.70;100.00;95757.38;5062583;28;20169;-51
2022/05/29 07:40:53;;;;;;;4.65;3.03;;;;;;;15.84;100.00;95764.44;5057148;28;20087;-54
2022/05/29 07:43:22;;;;;;;4.10;3.00;;;;;;;16.54;100.00;95768.69;5060829;28;20041;-52
2022/05/29 07:45:53;;;;;;;3.97;2.75;;;;;;;16.43;100.00;95760.47;5058968;28;20068;-50
2022/05/29 07:48:24;;;;;;;4.75;2.80;;;;;;;16.18;100.00;95752.16;5060002;28;20084;-54
2022/05/29 07:50:53;;;;;;;6.10;3.00;;;;;;;16.33;100.00;95758.97;5057328;28;20471;-51
2022/05/29 07:53:22;;;;;;;3.97;2.88;;;;;;;16.95;100.00;95772.34;5061426;28;20841;-56
2022/05/29 07:55:50;;;;;;;4.03;2.70;;;;;;;17.21;100.00;95774.25;5059404;28;20063;-52
2022/05/29 07:58:20;;;;;;;7.95;3.20;;;;;;;16.80;100.00;95760.00;5060103;28;20613;-53
2022/05/29 08:00:49;;;;;;;6.65;3.08;;;;;;;17.10;100.00;95754.31;5059794;28;20067;-54
2022/05/29 08:03:17;;;;;;;4.35;3.00;;;;;;;16.80;100.00;95760.00;5061562;28;20388;-49
2022/05/29 08:05:46;;;;;;;6.50;2.67;;;;;;;17.39;100.00;95768.31;5063186;28;20079;-55
2022/05/29 08:08:15;;;;;;;4.40;2.70;;;;;;;17.72;100.00;95765.63;5060929;28;20805;-53
2022/05/29 08:10:44;;;;;;;6.55;2.90;;;;;;;17.41;100.00;95760.91;5061845;28;20083;-54
2022/05/29 08:13:14;;;;;;;4.00;2.58;;;;;;;17.47;100.00;95752.94;5059463;28;20702;-53
2022/05/29 08:15:43;;;;;;;4.93;2.80;;;;;;;17.91;100.00;95764.03;5061570;28;20495;-54
2022/05/29 08:18:12;;;;;;;4.15;2.55;;;;;;;18.26;99.13;95767.22;5061246;28;20072;-51
2022/05/29 08:20:40;;;;;;;4.68;2.40;;;;;;;18.02;84.56;95766.84;5062182;28;20450;-51
2022/05/29 08:23:14;;;;;;;6.13;2.30;;;;;;;17.89;91.46;95760.72;5063610;28;20094;-49
2022/05/29 08:31:15;;;;;;;6.68;2.90;;;;;;;17.17;100.00;95759.66;5057194;28;20104;-51
2022/05/29 08:33:46;;;;;;;3.70;2.85;;;;;;;16.81;100.00;95764.31;5062447;28;20068;-51
2022/05/29 08:36:16;;;;;;;5.10;2.80;;;;;;;17.01;100.00;95766.22;5058709;28;20095;-53
2022/05/29 08:38:47;;;;;;;4.55;2.53;;;;;;;17.24;100.00;95774.66;5062788;28;20094;-51
2022/05/29 08:41:18;;;;;;;5.85;2.50;;;;;;;17.18;100.00;95777.31;5060152;28;20053;-52
2022/05/29 08:44:03;;;;;;;4.72;2.70;;;;;;;17.28;100.00;95769.75;5060231;28;20091;-54
2022/05/29 08:46:43;;;;;;;5.38;2.50;;;;;;;17.41;100.00;95763.59;5056240;28;20476;-53
2022/05/29 08:49:15;;;;;;;5.33;2.50;;;;;;;18.07;100.00;95768.91;5060404;28;20080;-54
2022/05/29 08:52:04;;;;;;;4.80;2.58;;;;;;;17.31;100.00;95764.81;5062035;28;20060;-54
2022/05/29 08:54:47;;;;;;;4.22;2.15;;;;;;;17.82;100.00;95757.25;5059679;28;20455;-50
2022/05/29 08:57:35;;;;;;;6.60;2.58;;;;;;;16.98;100.00;95772.75;5061751;28;20072;-51
2022/05/29 09:00:07;;;;;;;5.40;2.70;;;;;;;16.94;100.00;95778.69;5060339;28;20404;-56
2022/05/29 09:02:45;;;;;;;4.15;2.40;;;;;;;17.26;100.00;95785.91;5064599;28;20519;-53
2022/05/29 09:05:19;;;;;;;5.03;2.33;;;;;;;16.78;100.00;95788.66;5061491;28;20068;-55
2022/05/29 09:07:50;;;;;;;5.20;2.53;;;;;;;17.14;100.00;95771.56;5065173;28;20060;-49
2022/05/29 09:10:20;;;;;;;6.53;2.50;;;;;;;17.43;100.00;95782.88;5062043;28;20060;-52
2022/05/29 09:12:52;;;;;;;6.93;2.28;;;;;;;17.18;100.00;95785.31;5060061;28;20067;-47
2022/05/29 09:15:24;;;;;;;5.18;2.50;;;;;;;16.95;100.00;95783.00;5058805;28;20076;-53
2022/05/29 09:17:55;;;;;;;4.13;2.50;;;;;;;16.86;100.00;95779.69;5060010;28;20080;-53
2022/05/29 09:20:28;;;;;;;5.63;2.35;;;;;;;17.06;100.00;95774.41;5061484;28;20465;-55
2022/05/29 09:22:58;;;;;;;4.13;2.05;;;;;;;17.02;100.00;95763.34;5059316;28;20064;-52
2022/05/29 09:25:31;;;;;;;3.42;2.15;;;;;;;17.44;100.00;95763.19;5061383;28;20060;-53
2022/05/29 09:28:02;;;;;;;6.28;2.28;;;;;;;17.56;98.57;95762.38;5062924;28;20063;-57
2022/05/29 09:30:30;;;;;;;4.25;1.88;;;;;;;17.38;97.13;95761.31;5058917;28;20076;-53
2022/05/29 09:33:02;;;;;;;3.17;2.25;;;;;;;17.63;90.86;95764.22;5058550;28;20072;-52
2022/05/29 09:35:36;;;;;;;5.88;1.90;;;;;;;17.24;84.78;95768.50;5059613;28;20092;-48
2022/05/29 09:38:08;;;;;;;4.20;1.80;;;;;;;17.23;84.11;95773.00;5061174;28;20076;-54
2022/05/29 09:40:41;;;;;;;4.20;1.88;;;;;;;17.65;84.14;95765.66;5062325;28;20056;-52
2022/05/29 09:43:17;;;;;;;3.67;1.88;;;;;;;17.42;92.03;95759.91;5061630;28;20131;-53
2022/05/29 09:45:48;;;;;;;3.58;1.73;;;;;;;17.82;78.91;95755.41;5060728;28;20064;-52
2022/05/29 09:51:18;;;;;;;5.70;1.90;;;;;;;18.24;90.94;95748.75;5062417;28;20564;-52
2022/05/29 09:53:51;;;;;;;3.58;2.00;;;;;;;18.52;80.34;95742.28;5066268;28;20423;-51
2022/05/29 09:56:26;;;;;;;4.00;2.00;;;;;;;18.56;74.32;95748.84;5065679;28;20534;-53
2022/05/29 09:58:57;;;;;;;3.58;1.65;;;;;;;18.81;64.99;95746.28;5065812;28;20052;-53
2022/05/29 10:01:30;;;;;;;4.70;1.90;;;;;;;18.62;64.61;95749.88;5065471;28;20060;-53
2022/05/29 10:04:01;;;;;;;5.65;1.90;;;;;;;18.60;64.92;95742.03;5065992;28;20072;-51
2022/05/29 10:06:32;;;;;;;4.65;2.03;;;;;;;17.07;77.01;95744.91;5063667;28;20072;-55
2022/05/29 10:09:19;;;;;;;4.80;2.10;;;;;;;16.85;70.71;95741.56;5061582;28;20097;-52
2022/05/29 10:11:49;;;;;;;3.72;1.83;;;;;;;17.41;75.37;95739.59;5063229;28;20068;-55
2022/05/29 10:14:22;;;;;;;6.13;2.30;;;;;;;17.38;72.01;95740.00;5065573;28;20114;-56
2022/05/29 10:16:53;;;;;;;2.95;2.03;;;;;;;17.54;71.72;95742.25;5062595;28;20435;-53
2022/05/29 10:19:36;;;;;;;3.95;2.10;;;;;;;18.07;66.69;95741.44;5064568;28;20060;-47
2022/05/29 10:22:11;;;;;;;4.88;1.90;;;;;;;17.85;67.59;95732.84;5065499;28;20079;-50
2022/05/29 10:24:41;;;;;;;4.05;2.08;;;;;;;17.33;69.87;95727.31;5065821;28;20071;-52
2022/05/29 10:27:14;;;;;;;3.33;1.95;;;;;;;16.76;70.13;95734.00;5065313;28;20084;-50
2022/05/29 10:29:43;;;;;;;5.93;2.30;;;;;;;17.26;69.86;95737.97;5066268;28;20267;-48
2022/05/29 10:32:21;;;;;;;3.78;2.00;;;;;;;17.35;67.92;95722.59;5058558;28;20073;-54
2022/05/29 10:34:50;;;;;;;4.72;2.10;;;;;;;18.22;71.72;95725.97;5066236;28;20072;-52
2022/05/29 10:37:27;;;;;;;8.93;1.80;;;;;;;18.17;68.57;95715.09;5059983;28;20056;-53
2022/05/29 10:40:14;;;;;;;4.25;2.00;;;;;;;17.76;69.43;95710.91;5066488;28;20068;-50
2022/05/29 10:42:45;;;;;;;3.75;2.00;;;;;;;17.47;77.40;95714.78;5064479;28;20064;-49
2022/05/29 10:45:22;;;;;;;3.20;1.90;;;;;;;17.03;78.84;95714.38;5067091;28;20710;-54
2022/05/29 10:48:12;;;;;;;4.47;1.80;;;;;;;17.24;83.01;95715.19;5065509;28;21385;-49
2022/05/29 10:50:53;;;;;;;3.72;1.95;;;;;;;17.06;92.76;95715.81;5065173;28;21620;-51
2022/05/29 10:53:28;;;;;;;3.83;1.80;;;;;;;17.30;87.60;95723.19;5063890;28;20541;-55
2022/05/29 10:56:04;;;;;;;6.53;2.22;;;;;;;16.89;97.02;95719.88;5064233;28;20094;-53
2022/05/29 10:58:49;;;;;;;4.30;2.40;;;;;;;16.64;100.00;95720.41;5061662;28;20527;-50
2022/05/29 11:04:42;;;;;;;4.95;2.10;;;;;;;16.82;87.38;95720.66;5063378;28;20080;-53
2022/05/29 11:07:29;;;;;;;3.28;1.75;;;;;;;17.13;83.47;95729.94;5061520;28;20076;-54
2022/05/29 11:10:06;;;;;;;3.13;2.10;;;;;;;16.92;92.20;95724.81;5060580;28;20064;-49
2022/05/29 11:13:09;;;;;;;5.95;2.33;;;;;;;16.54;100.00;95734.09;5057898;28;20072;-50
2022/05/29 11:15:44;;;;;;;4.63;2.10;;;;;;;16.63;100.00;95729.41;5060752;28;20457;-53
2022/05/29 11:18:41;;;;;;;3.72;1.95;;;;;;;16.41;93.46;95735.88;5061388;28;20414;-52
2022/05/29 11:21:15;;;;;;;4.18;1.92;;;;;;;17.31;88.93;95729.38;5059429;28;23114;-48
2022/05/29 11:24:02;;;;;;;2.53;1.67;;;;;;;16.11;100.00;95746.81;5060159;28;20480;-55
2022/05/29 11:26:42;;;;;;;2.47;1.60;;;;;;;14.93;100.00;95738.53;5056201;28;20071;-49
2022/05/29 11:29:24;;;;;;;4.18;2.05;;;;;;;14.04;100.00;95726.44;5056466;28;20041;-54
2022/05/29 11:32:18;;;;;;;6.45;1.67;;;;;;;13.62;100.00;95726.06;5056908;28;20068;-49
2022/05/29 11:35:07;;;;;;;6.03;1.70;;;;;;;13.82;100.00;95731.66;5056278;28;20073;-50
2022/05/29 11:37:56;;;;;;;1.98;1.48;;;;;;;13.46;100.00;95720.94;5062288;28;20763;-52
2022/05/29 11:40:28;;;;;;;1.90;1.38;;;;;;;13.15;100.00;95723.69;5054427;28;20077;-53
2022/05/29 11:43:00;;;;;;;4.60;1.98;;;;;;;12.64;100.00;95737.44;5055292;28;20071;-54
2022/05/29 11:51:37;;;;;;;2.85;1.92;;;;;;;13.05;100.00;95710.69;5059737;28;20076;-51
2022/05/29 11:54:15;;;;;;;2.60;1.63;;;;;;;12.92;100.00;95707.81;5061590;28;20072;-48
2022/05/29 11:56:49;;;;;;;2.88;1.83;;;;;;;13.17;100.00;95714.53;5061339;28;20484;-51
2022/05/29 11:59:22;;;;;;;4.78;1.80;;;;;;;13.20;100.00;95703.59;5063002;28;20156;-51
2022/05/29 12:01:52;;;;;;;3.15;1.83;;;;;;;13.46;100.00;95705.88;5059387;28;20443;-53
2022/05/29 12:04:28;;;;;;;2.97;1.58;;;;;;;13.38;100.00;95707.78;5058455;28;20098;-50
2022/05/29 12:07:05;;;;;;;1.48;1.30;;;;;;;13.32;100.00;95708.47;5061851;28;20158;-50
2022/05/29 12:09:37;;;;;;;1.35;1.10;;;;;;;13.95;100.00;95705.34;5062883;28;20076;-50
2022/05/29 12:12:12;;;;;;;3.30;1.20;;;;;;;14.82;94.71;95704.50;5059154;28;20076;-52
2022/05/29 12:14:42;;;;;;;1.20;1.08;;;;;;;14.93;86.16;95701.38;5062706;28;20549;-49
2022/05/29 12:17:13;;;;;;;2.78;1.05;;;;;;;15.15;99.75;95702.16;5061256;28;20068;-48
2022/05/29 12:19:44;;;;;;;2.90;1.30;;;;;;;14.72;100.00;95698.69;5062262;28;20056;-50
2022/05/29 12:22:16;;;;;;;0.95;0.90;;;;;;;14.13;100.00;95701.47;5061064;28;20072;-48
2022/05/29 12:24:47;;;;;;;2.00;1.08;;;;;;;14.32;100.00;95700.09;5060720;28;20056;-49
2022/05/29 12:27:20;;;;;;;1.75;1.30;;;;;;;14.55;100.00;95687.50;5060479;28;20076;-48